createdAt,value
2023-01-29T12:09:41.635Z,7.50
2023-01-29T12:12:42.046Z,7.63
2023-01-29T12:15:08.674Z,8.10
2023-01-29T12:20:14.012Z,8.27
2023-01-29T12:23:03.795Z,8.75
2023-01-29T12:25:56.572Z,7.68
2023-01-29T12:28:33.738Z,9.32
2023-01-29T12:31:00.383Z,9.27
2023-01-29T12:36:07.932Z,8.07
2023-01-29T12:38:37.086Z,8.77
2023-01-29T12:41:39.336Z,7.97
2023-01-29T12:44:18.712Z,7.93
2023-01-29T12:46:52.824Z,8.27
2023-01-29T12:49:24.792Z,8.88
2023-01-29T12:52:09.966Z,9.30
2023-01-29T12:54:46.094Z,9.35
2023-01-29T12:57:30.086Z,9.82
2023-01-29T13:00:06.196Z,7.97
2023-01-29T13:02:44.192Z,8.07
2023-01-29T13:05:38.519Z,8.35
2023-01-29T13:08:14.590Z,8.25
2023-01-29T13:10:45.980Z,8.30
2023-01-29T13:13:19.224Z,8.55
2023-01-29T13:15:47.560Z,8.45
2023-01-29T13:18:44.795Z,8.82
2023-01-29T13:21:18.660Z,9.02
2023-01-29T13:23:55.570Z,9.18
2023-01-29T13:26:23.180Z,9.43
2023-01-29T13:28:52.285Z,9.68
2023-01-29T13:31:33.070Z,10.15
2023-01-29T13:34:15.448Z,9.07
2023-01-29T13:36:48.830Z,8.38
2023-01-29T13:39:29.355Z,8.57
2023-01-29T13:41:58.178Z,8.18
2023-01-29T13:44:26.839Z,8.82
2023-01-29T13:47:09.682Z,9.48
2023-01-29T13:49:43.977Z,8.48
2023-01-29T13:52:28.745Z,7.78
2023-01-29T13:55:05.163Z,7.88
2023-01-29T13:57:44.109Z,7.88
2023-01-29T14:00:24.363Z,9.32
2023-01-29T14:02:59.817Z,7.65
2023-01-29T14:05:29.468Z,8.45
2023-01-29T14:08:03.302Z,8.65
2023-01-29T14:10:32.468Z,8.60
2023-01-29T14:13:21.213Z,8.57
2023-01-29T14:16:13.915Z,9.52
2023-01-29T14:19:01.748Z,8.43
2023-01-29T14:21:34.057Z,7.93
2023-01-29T14:24:24.608Z,9.68
2023-01-29T14:26:55.706Z,8.65
2023-01-29T14:32:20.519Z,8.63
2023-01-29T14:32:42.625Z,8.32
2023-01-29T14:34:54.947Z,9.18
2023-01-29T14:37:38.805Z,8.20
2023-01-29T14:40:11.403Z,7.75
2023-01-29T14:42:45.057Z,8.63
2023-01-29T14:45:32.362Z,8.32
2023-01-29T14:48:00.012Z,7.87
2023-01-29T14:50:31.601Z,8.23
2023-01-29T14:53:19.884Z,6.72
2023-01-29T14:56:01.571Z,7.55
2023-01-29T14:58:50.016Z,7.05
2023-01-29T15:01:25.188Z,6.43
2023-01-29T15:04:16.019Z,7.25
2023-01-29T15:06:49.546Z,6.22
2023-01-29T15:09:40.971Z,6.18
2023-01-29T15:12:20.754Z,4.90
2023-01-29T15:15:02.930Z,5.00
2023-01-29T15:17:48.227Z,5.57
2023-01-29T15:20:26.363Z,4.47
2023-01-29T15:22:53.043Z,5.30
2023-01-29T15:25:21.599Z,4.78
2023-01-29T15:27:48.931Z,5.78
2023-01-29T15:30:22.996Z,4.82
2023-01-29T15:32:50.004Z,4.80
2023-01-29T15:35:30.150Z,5.45
2023-01-29T15:38:02.855Z,5.05
2023-01-29T15:40:29.630Z,4.45
2023-01-29T15:42:56.300Z,5.60
2023-01-29T15:45:33.476Z,6.50
2023-01-29T15:48:17.203Z,7.00
2023-01-29T15:50:45.181Z,7.03
2023-01-29T15:53:20.693Z,8.35
2023-01-29T15:55:48.009Z,9.02
2023-01-29T15:58:29.952Z,9.23
2023-01-29T16:00:59.353Z,9.40
2023-01-29T16:03:30.785Z,8.57
2023-01-29T16:05:57.819Z,10.05
2023-01-29T16:08:26.773Z,9.38
2023-01-29T16:10:57.001Z,10.40
2023-01-29T16:13:29.609Z,11.13
2023-01-29T16:16:02.347Z,11.10
2023-01-29T16:18:42.895Z,10.88
2023-01-29T16:21:25.559Z,10.70
2023-01-29T16:23:56.691Z,10.20
2023-01-29T16:26:31.679Z,10.93
2023-01-29T16:29:05.154Z,10.82
2023-01-29T16:31:32.369Z,11.13
2023-01-29T16:34:05.985Z,11.88
2023-01-29T16:36:32.813Z,12.15
2023-01-29T16:39:02.454Z,11.70
2023-01-29T16:41:32.176Z,10.60
2023-01-29T16:44:02.321Z,10.10
2023-01-29T16:46:33.611Z,12.40
2023-01-29T16:49:00.718Z,11.50
2023-01-29T16:51:30.588Z,12.05
2023-01-29T16:54:00.238Z,12.35
2023-01-29T16:56:30.832Z,11.15
2023-01-29T16:58:58.631Z,11.80
2023-01-29T17:01:28.351Z,12.60
2023-01-29T17:04:05.757Z,12.68
2023-01-29T17:06:33.150Z,12.88
2023-01-29T17:09:00.457Z,13.20
2023-01-29T17:11:39.807Z,13.00
2023-01-29T17:14:08.317Z,13.23
2023-01-29T17:16:37.540Z,12.88
2023-01-29T17:19:18.098Z,13.52
2023-01-29T17:21:44.836Z,13.30
2023-01-29T17:24:11.954Z,13.95
2023-01-29T17:26:39.604Z,13.90
2023-01-29T17:29:08.665Z,13.25
2023-01-29T17:31:35.381Z,11.98
2023-01-29T17:34:02.103Z,13.90
2023-01-29T17:36:28.744Z,14.85
2023-01-29T17:41:28.467Z,13.82
2023-01-29T17:46:22.043Z,13.15
2023-01-29T17:48:52.303Z,13.98
2023-01-29T17:51:19.073Z,13.88
2023-01-29T17:53:46.967Z,11.68
2023-01-29T17:56:16.916Z,12.60
2023-01-29T17:58:43.948Z,13.98
2023-01-29T18:01:10.595Z,13.65
2023-01-29T18:03:37.389Z,14.57
2023-01-29T18:06:07.986Z,14.70
2023-01-29T18:08:37.069Z,14.82
2023-01-29T18:11:04.003Z,13.73
2023-01-29T18:13:30.715Z,12.18
2023-01-29T18:15:57.405Z,13.02
2023-01-29T18:18:24.557Z,13.25
2023-01-29T18:20:51.394Z,12.77
2023-01-29T18:23:18.177Z,12.18
2023-01-29T18:25:44.915Z,13.43
2023-01-29T18:28:19.786Z,11.50
2023-01-29T18:30:47.248Z,12.35
2023-01-29T18:33:15.038Z,12.32
2023-01-29T18:35:43.161Z,12.45
2023-01-29T18:38:09.800Z,11.85
2023-01-29T18:43:04.179Z,12.43
2023-01-29T18:45:31.119Z,13.32
2023-01-29T18:47:57.804Z,12.10
2023-01-29T18:50:26.213Z,12.50
2023-01-29T18:52:55.916Z,11.65
2023-01-29T18:55:23.691Z,11.30
2023-01-29T18:58:28.052Z,10.20
2023-01-29T19:00:43.879Z,10.48
2023-01-29T19:03:11.254Z,11.70
2023-01-29T19:05:38.156Z,11.65
2023-01-29T19:08:05.710Z,11.07
2023-01-29T19:10:32.756Z,11.38
2023-01-29T19:12:59.490Z,11.65
2023-01-29T19:15:26.345Z,10.18
2023-01-29T19:17:53.447Z,11.43
2023-01-29T19:20:20.456Z,11.10
2023-01-29T19:22:47.391Z,10.43
2023-01-29T19:25:14.158Z,11.43
2023-01-29T19:27:41.370Z,10.68
2023-01-29T19:30:10.138Z,11.10
2023-01-29T19:32:36.850Z,10.95
2023-01-29T19:35:03.696Z,11.65
2023-01-29T19:37:30.983Z,10.30
2023-01-29T19:39:57.871Z,10.07
2023-01-29T19:42:24.636Z,9.65
2023-01-29T19:44:52.250Z,9.95
2023-01-29T19:47:19.205Z,11.15
2023-01-29T19:49:45.953Z,11.05
2023-01-29T19:52:49.812Z,11.00
2023-01-29T19:55:17.728Z,10.27
2023-01-29T19:57:44.711Z,9.07
2023-01-29T20:00:12.272Z,9.98
2023-01-29T20:02:39.390Z,10.38
2023-01-29T20:05:08.025Z,9.70
2023-01-29T20:07:35.973Z,9.30
2023-01-29T20:10:02.906Z,10.40
2023-01-29T20:12:29.967Z,10.20
2023-01-29T20:14:56.850Z,10.23
2023-01-29T20:17:23.565Z,10.18
2023-01-29T20:19:50.323Z,9.93
2023-01-29T20:22:17.243Z,9.60
2023-01-29T20:24:44.348Z,8.57
2023-01-29T20:27:11.745Z,10.02
2023-01-29T20:29:39.297Z,9.68
2023-01-29T20:32:08.085Z,9.25
2023-01-29T20:34:35.686Z,11.68
2023-01-29T20:37:02.435Z,9.07
2023-01-29T20:39:29.159Z,9.45
2023-01-29T20:41:57.392Z,9.15
2023-01-29T20:44:25.067Z,10.38
2023-01-29T20:46:52.107Z,8.68
2023-01-29T20:49:19.207Z,9.50
2023-01-29T20:51:46.288Z,9.65
2023-01-29T20:54:13.273Z,10.27
2023-01-29T20:56:42.889Z,10.15
2023-01-29T20:59:11.310Z,10.38
2023-01-29T21:01:38.066Z,9.05
2023-01-29T21:04:04.918Z,9.90
2023-01-29T21:06:31.758Z,9.63
2023-01-29T21:08:58.521Z,10.93
2023-01-29T21:11:25.414Z,10.38
2023-01-29T21:13:57.414Z,9.70
2023-01-29T21:16:26.229Z,9.75
2023-01-29T21:18:57.894Z,10.27
2023-01-29T21:21:26.503Z,10.35
2023-01-29T21:23:53.833Z,10.02
2023-01-29T21:26:20.717Z,9.88
2023-01-29T21:28:47.487Z,10.77
2023-01-29T21:31:17.683Z,10.15
2023-01-29T21:33:44.780Z,10.05
2023-01-29T21:36:12.182Z,9.38
2023-01-29T21:38:39.685Z,9.18
2023-01-29T21:41:09.758Z,11.20
2023-01-29T21:43:37.419Z,9.27
2023-01-29T21:46:13.881Z,10.25
2023-01-29T21:48:40.784Z,9.18
2023-01-29T21:51:08.219Z,9.95
2023-01-29T21:53:35.008Z,9.65
2023-01-29T21:56:03.793Z,9.35
2023-01-29T21:58:31.025Z,9.27
2023-01-29T22:01:11.345Z,9.85
2023-01-29T22:03:47.029Z,9.60
2023-01-29T22:06:14.124Z,10.40
2023-01-29T22:08:40.801Z,8.98
2023-01-29T22:11:08.096Z,10.40
2023-01-29T22:13:35.006Z,8.70
2023-01-29T22:16:01.718Z,8.88
2023-01-29T22:18:28.440Z,9.60
2023-01-29T22:20:56.073Z,8.55
2023-01-29T22:23:23.158Z,8.13
2023-01-29T22:25:50.101Z,9.20
2023-01-29T22:28:17.550Z,9.45
2023-01-29T22:30:45.128Z,9.73
2023-01-29T22:33:12.116Z,10.63
2023-01-29T22:35:38.847Z,8.98
2023-01-29T22:38:05.722Z,9.27
2023-01-29T22:40:32.371Z,9.57
2023-01-29T22:42:59.025Z,9.43
2023-01-29T22:45:25.799Z,9.88
2023-01-29T22:47:52.438Z,8.68
2023-01-29T22:52:53.932Z,9.30
2023-01-29T22:55:20.908Z,9.02
2023-01-29T22:57:50.928Z,8.93
2023-01-29T23:00:18.336Z,9.93
2023-01-29T23:02:47.227Z,10.57
2023-01-29T23:05:14.056Z,10.50
2023-01-29T23:07:40.691Z,10.10
2023-01-29T23:12:34.318Z,9.82
2023-01-29T23:15:00.986Z,10.55
2023-01-29T23:17:27.645Z,8.95
2023-01-29T23:19:54.295Z,10.95
2023-01-29T23:24:48.704Z,9.68
2023-01-29T23:29:47.304Z,9.32
2023-01-29T23:32:20.068Z,10.27
2023-01-29T23:34:46.921Z,10.55
2023-01-29T23:37:13.831Z,11.00
2023-01-29T23:39:40.607Z,10.85
2023-01-29T23:42:07.367Z,9.88
2023-01-29T23:44:34.129Z,11.85
2023-01-29T23:47:00.756Z,9.80
2023-01-29T23:51:54.018Z,9.45
2023-01-29T23:54:20.743Z,10.20
2023-01-29T23:56:47.474Z,9.95
2023-01-29T23:59:15.035Z,11.13
